Terminal Aerodrome Forecast
Issued by NWS

Home | Current Version | Previous Version | Text Only | Print | Product List | Glossary On
Versions: 1 2 3 4 5 6 7 8 9 10 11 12 13 14
000
FTUS42 KTAE 020500
TAFECP
TAF
KECP 020530Z 0206/0306 00000KT 5SM BR OVC009
     FM020900 00000KT 1/2SM FG OVC004
     FM021200 24004KT 5SM BR OVC007
     FM021600 23005KT P6SM BKN025 OVC050
     FM030000 18006KT P6SM OVC050=

USA.gov is the U.S. government's official web portal to all federal, state and local government web resources and services.